• Join FlightAware (Why Join?)
  • Login
  • US Flag 
03:14PM EDT


 

Airport Tracker/Info


-or-


 

Live Flight TrackerFlight Track Log ✈ AFL150 ✈ 15-Nov-2013 ✈ UUEE / SVO - MUHA / HAV

Flight Track Log - Related Links

Times and Time Zones

All times are in EST time to prevent confusion due to time zone crossing. See the AFL150 flight status page for this flight to view local times or setup timezone preferences in your user account.

Time Position Orientation Groundspeed Altitude Reporting Facility
EST Latitude Longitude Course Direction KTS MPH feet Rate Location/Type
04:59AM 55.9730 37.4230 239° Southwest 125 144  Level FlightAware
05:00AM 55.9620 37.3520 255° West 167 192 2,200 1,800 Climbing FlightAware
05:01AM 55.9540 37.2980 255° West 199 229 2,700 900 Climbing FlightAware
05:01AM 55.9460 37.2370 257° West 240 276 3,300 1,620 Climbing FlightAware
05:02AM 55.9480 37.1570 273° West 252 290 4,800 2,520 Climbing FlightAware
05:02AM 55.9560 37.0980 284° West 251 289 6,300 2,580 Climbing FlightAware
05:03AM 55.9640 37.0150 280° West 259 298 7,800 2,340 Climbing FlightAware
05:04AM 55.9720 36.9270 279° West 267 307 9,400 2,100 Climbing FlightAware
05:05AM 55.9810 36.8270 279° West 291 335 10,800 1,380 Climbing FlightAware
05:05AM 55.9800 36.7350 269° West 332 382 11,300 1,380 Climbing FlightAware
05:06AM 55.9710 36.6120 263° West 351 404 12,700 1,920 Climbing FlightAware
05:07AM 55.9600 36.4610 263° West 366 421 14,400 2,040 Climbing FlightAware
05:07AM 55.9510 36.3400 262° West 371 427 15,800 2,160 Climbing FlightAware
05:08AM 55.9430 36.2350 262° West 372 428 17,200 2,100 Climbing FlightAware
05:09AM 55.9320 36.0960 262° West 380 437 18,600 1,860 Climbing FlightAware
05:09AM 55.9240 35.9870 263° West 384 442 19,700 1,920 Climbing FlightAware
05:10AM 55.9170 35.8920 263° West 386 444 20,700 1,800 Climbing FlightAware
05:10AM 55.9070 35.7650 262° West 393 452 21,800 1,620 Climbing FlightAware
05:11AM 55.8960 35.6240 262° West 398 458 23,000 1,740 Climbing FlightAware
05:12AM 55.8860 35.5060 261° West 397 457 24,200 1,680 Climbing FlightAware
05:12AM 55.8770 35.3840 263° West 398 458 25,100 1,200 Climbing FlightAware
05:13AM 55.8640 35.2280 262° West 409 471 25,900 1,080 Climbing FlightAware
05:14AM 55.8520 35.0790 262° West 412 474 26,800 1,140 Climbing FlightAware
05:14AM 55.8430 34.9760 261° West 415 478 27,400 960 Climbing FlightAware
05:15AM 55.8270 34.8090 260° West 426 490 28,100 900 Climbing FlightAware
05:16AM 55.8080 34.6660 257° West 431 496 28,800 960 Climbing FlightAware
05:17AM 55.7910 34.5230 258° West 432 497 29,500 1,260 Climbing FlightAware
05:18AM 55.7610 34.2870 257° West 424 488 31,100 1,380 Climbing FlightAware
05:18AM 55.7460 34.1660 258° West 419 482 31,900 1,200 Climbing FlightAware
05:19AM 55.7350 34.0760 258° West 416 479 32,400 720 Climbing FlightAware
05:20AM 55.7160 33.9260 257° West 422 486 32,800 600 Climbing FlightAware
05:21AM 55.6880 33.7080 257° West 428 493 33,500 660 Climbing FlightAware
05:21AM 55.6700 33.5710 257° West 428 493 34,000 420 Climbing FlightAware
05:22AM 55.6570 33.4750 257° West 427 491 34,000  Level FlightAware
05:23AM 55.6340 33.3030 257° West 424 488 34,000  Level FlightAware
05:23AM 55.6130 33.1490 256° West 422 486 34,000  Level FlightAware
05:24AM 55.5960 33.0180 257° West 421 484 34,000  Level FlightAware
05:25AM 55.5760 32.8720 256° West 421 484 34,000  Level FlightAware
05:25AM 55.5600 32.7600 256° West 421 484 34,000  Level FlightAware
05:26AM 55.5430 32.6400 256° West 421 484 34,000  Level FlightAware
05:27AM 55.5260 32.5130 257° West 422 486 34,000  Level FlightAware
05:27AM 55.5040 32.3630 256° West 421 484 34,000  Level FlightAware
05:28AM 55.4810 32.1970 256° West 420 483 34,000  Level FlightAware
05:28AM 55.4730 32.1430 255° West 420 483 34,000  Level FlightAware
05:29AM 55.4470 31.9630 256° West 421 484 34,000  Level FlightAware
05:30AM 55.4270 31.8300 255° West 421 484 34,000  Level FlightAware
05:31AM 55.4100 31.7130 256° West 419 482 34,000  Level FlightAware
05:31AM 55.3900 31.5770 256° West 418 481 34,000  Level FlightAware
05:33AM 55.3540 31.3410 255° West 417 480 34,000  Level FlightAware
05:33AM 55.3370 31.2280 255° West 418 481 34,000  Level FlightAware
05:34AM 55.3150 31.0880 255° West 417 480 34,000  Level FlightAware
05:35AM 55.2930 30.9470 255° West 417 480 34,000  Level FlightAware
05:36AM 55.2820 30.8870 252° West 416 479 34,000  Level FlightAware
05:36AM 55.2110 30.6340 244° Southwest 429 494 34,000  Level FlightAware
05:39AM 55.3505 30.2315 301° West  Level Estimated
05:40AM 55.4130 30.0490 301° West  Level Estimated
05:40AM 55.0210 30.0270 301° West 419 482 34,000  Level FlightAware
05:41AM 54.9530 29.8160 241° Southwest 419 482 34,000  Level FlightAware
05:41AM 54.9300 29.7450 241° Southwest 419 482 34,000  Level FlightAware
05:42AM 54.8940 29.6360 240° Southwest 420 483 34,000  Level FlightAware
05:43AM 54.8510 29.5060 240° Southwest 419 482 34,000 120 Level FlightAware
05:43AM 54.8120 29.3880 240° Southwest 422 486 34,200 480 Climbing FlightAware
05:44AM 54.7830 29.3000 240° Southwest 422 486 34,600 720 Climbing FlightAware
05:45AM 54.7390 29.1700 240° Southwest 423 487 35,100 660 Climbing FlightAware
05:45AM 54.7030 29.0610 240° Southwest 424 488 35,500 660 Climbing FlightAware
05:46AM 54.6600 28.9360 239° Southwest 424 488 36,000 360 Climbing FlightAware
05:46AM 54.6250 28.8320 240° Southwest 427 491 36,000  Level FlightAware
05:47AM 54.5890 28.7270 239° Southwest 428 493 36,000  Level FlightAware
05:48AM 54.5550 28.6270 240° Southwest 427 491 36,000  Level FlightAware
05:48AM 54.5070 28.4890 239° Southwest 425 489 36,000  Level FlightAware
05:49AM 54.4710 28.3850 239° Southwest 423 487 36,000  Level FlightAware
05:50AM 54.4350 28.2790 240° Southwest 421 484 36,000  Level FlightAware
05:50AM 54.4020 28.1840 239° Southwest 421 484 36,000  Level FlightAware
05:51AM 54.3670 28.0840 239° Southwest 421 484 36,000  Level FlightAware
05:51AM 54.3370 27.9960 240° Southwest 420 483 36,000  Level FlightAware
05:52AM 54.3000 27.8920 239° Southwest 421 484 36,000  Level FlightAware
05:53AM 54.2570 27.7690 239° Southwest 421 484 36,000  Level FlightAware
05:53AM 54.2180 27.6580 239° Southwest 421 484 36,000  Level FlightAware
05:54AM 54.1680 27.5190 238° Southwest 422 486 36,000  Level FlightAware
05:55AM 54.1310 27.4150 239° Southwest 423 487 36,000  Level FlightAware
05:55AM 54.0870 27.2910 239° Southwest 424 488 36,000  Level FlightAware
05:56AM 54.0453 27.1661 240° Southwest 425 489 36,000  Level FlightAware ADS-B (EPSY / SZY)
05:57AM 53.9949 27.0157 240° Southwest 426 490 36,000  Level FlightAware ADS-B (EPSY / SZY)
05:58AM 53.9615 26.9173 240° Southwest 428 493 36,000  Level FlightAware ADS-B (EPSY / SZY)
05:58AM 53.9318 26.8302 240° Southwest 427 491 36,000  Level FlightAware ADS-B (EPSY / SZY)
05:59AM 53.8925 26.7103 241° Southwest 425 489 36,000  Level FlightAware ADS-B (EPSY / SZY)
05:59AM 53.8645 26.5966 247° West 423 487 36,000  Level FlightAware ADS-B (EPSY / SZY)
06:00AM 53.8471 26.5226 248° West 421 484 36,000  Level FlightAware ADS-B (EPSY / SZY)
06:00AM 53.8202 26.4096 248° West 422 486 36,000  Level FlightAware ADS-B (EPSY / SZY)
06:01AM 53.7935 26.2992 248° West 423 487 36,000  Level FlightAware ADS-B (EPSY / SZY)
06:02AM 53.7658 26.1849 248° West 423 487 36,000  Level FlightAware ADS-B (EPSY / SZY)
06:02AM 53.7433 26.0927 248° West 423 487 36,000  Level FlightAware ADS-B (EPSY / SZY)
06:03AM 53.7174 25.9868 248° West 422 486 36,000  Level FlightAware ADS-B (EPSY / SZY)
06:03AM 53.6940 25.8919 247° West 422 486 36,000  Level FlightAware ADS-B (EPSY / SZY)
06:04AM 53.6617 25.7614 247° West 422 486 36,000  Level FlightAware ADS-B (EPSY / SZY)
06:04AM 53.6391 25.6705 247° West 422 486 36,000  Level FlightAware ADS-B (EPSY / SZY)
06:05AM 53.6114 25.5595 247° West 424 488 36,000  Level FlightAware ADS-B (EPSY / SZY)
06:06AM 53.5790 25.4306 247° West 424 488 36,000  Level FlightAware ADS-B (EPSY / SZY)
06:06AM 53.5486 25.3099 247° West 424 488 36,000  Level FlightAware ADS-B (EPSY / SZY)
06:07AM 53.5265 25.2229 247° West 425 489 36,000  Level FlightAware ADS-B (EPSY / SZY)
06:08AM 53.4974 25.1087 247° West 426 490 36,000  Level FlightAware ADS-B (EPSY / SZY)
06:08AM 53.4694 24.9992 247° West 425 489 36,000  Level FlightAware ADS-B (EPSY / SZY)
06:09AM 53.4430 24.8969 247° West 425 489 36,000  Level FlightAware ADS-B (KJVY)
06:09AM 53.4125 24.7786 247° West 425 489 36,000  Level FlightAware ADS-B (EPSY / SZY)
06:10AM 53.4050 24.7497 246° West 424 488 36,000  Level FlightAware ADS-B (KJVY)
06:10AM 53.3796 24.6525 246° West 424 488 36,000  Level FlightAware ADS-B (EPSY / SZY)
06:11AM 53.3559 24.5618 246° West 422 486 36,000  Level FlightAware ADS-B (EPSY / SZY)
06:11AM 53.3193 24.4225 246° West 422 486 36,000  Level FlightAware ADS-B (EPSY / SZY)
06:12AM 53.2957 24.3331 246° West 422 486 36,000  Level FlightAware ADS-B (EPSY / SZY)
06:12AM 53.2724 24.2456 246° West 423 487 36,000  Level FlightAware ADS-B (EPSY / SZY)
06:13AM 53.2486 24.1562 246° West 423 487 36,000  Level FlightAware ADS-B (EPSY / SZY)
06:13AM 53.2175 24.0402 246° West 423 487 36,000  Level FlightAware ADS-B (EPSY / SZY)
06:14AM 53.1857 23.9217 246° West 424 488 36,000  Level FlightAware ADS-B (EPSY / SZY)
06:15AM 53.1621 23.8343 246° West 424 488 36,000  Level FlightAware ADS-B (EPSY / SZY)
06:15AM 53.1381 23.7433 246° West 425 489 36,000  Level FlightAware ADS-B (EPSY / SZY)
06:16AM 53.1148 23.6556 246° West 425 489 36,000  Level FlightAware ADS-B (EPSY / SZY)
06:16AM 53.0841 23.5410 246° West 426 490 36,000  Level FlightAware ADS-B (EPSY / SZY)
06:17AM 53.0602 23.4521 246° West 426 490 36,000  Level FlightAware ADS-B (EPSY / SZY)
06:17AM 53.0343 23.3561 246° West 425 489 36,000  Level FlightAware ADS-B (EPSY / SZY)
06:18AM 53.0099 23.2662 246° West 426 490 36,000  Level FlightAware ADS-B (EPSY / SZY)
06:18AM 52.9778 23.1480 246° West 425 489 36,000  Level FlightAware ADS-B (EPSY / SZY)
06:19AM 52.9534 23.0590 246° West 425 489 36,000  Level FlightAware ADS-B (EPSY / SZY)
06:20AM 52.9185 22.9322 246° West 426 490 36,000  Level FlightAware ADS-B (EPSY / SZY)
06:20AM 52.8946 22.8472 245° Southwest 425 489 36,000  Level FlightAware ADS-B (EPSY / SZY)
06:21AM 52.8582 22.7207 245° Southwest 425 489 36,000  Level FlightAware ADS-B (EPSY / SZY)
06:21AM 52.8328 22.6322 245° Southwest 424 488 36,000  Level FlightAware ADS-B (EPSY / SZY)
06:22AM 52.7939 22.4969 245° Southwest 425 489 36,000  Level FlightAware ADS-B (EPSY / SZY)
06:23AM 52.7603 22.3808 244° Southwest 426 490 36,000  Level FlightAware ADS-B (EPSY / SZY)
06:23AM 52.7271 22.2622 245° Southwest 425 489 36,000  Level FlightAware ADS-B (EPSY / SZY)
06:24AM 52.7033 22.1773 245° Southwest 424 488 36,000  Level FlightAware ADS-B (EPSY / SZY)
06:25AM 52.6779 22.0877 245° Southwest 424 488 36,000  Level FlightAware ADS-B (EPSY / SZY)
06:25AM 52.6544 22.0052 245° Southwest 426 490 36,000  Level FlightAware ADS-B (EPSY / SZY)
06:26AM 52.6273 21.9102 245° Southwest 427 491 36,000  Level FlightAware ADS-B (EPSY / SZY)
06:26AM 52.6020 21.8219 245° Southwest 428 493 36,000  Level FlightAware ADS-B (EPSY / SZY)
06:27AM 52.5668 21.6997 245° Southwest 429 494 36,000  Level FlightAware ADS-B (EPSY / SZY)
06:27AM 52.5418 21.6131 245° Southwest 431 496 36,000  Level FlightAware ADS-B (EPSY / SZY)
06:28AM 52.5098 21.5028 245° Southwest 430 495 36,000  Level FlightAware ADS-B (EPSY / SZY)
06:28AM 52.4827 21.4101 244° Southwest 430 495 36,000  Level FlightAware ADS-B (EPSY / SZY)
06:29AM 52.4518 21.3048 244° Southwest 432 497 36,000  Level FlightAware ADS-B (EPSY / SZY)
06:30AM 52.4171 21.1863 244° Southwest 432 497 36,000  Level FlightAware ADS-B (EPSY / SZY)
06:30AM 52.3912 21.0988 244° Southwest 432 497 36,000  Level FlightAware ADS-B (EPSY / SZY)
06:31AM 52.3537 20.9719 244° Southwest 432 497 36,000  Level FlightAware ADS-B (EPSY / SZY)
06:31AM 52.3273 20.8834 244° Southwest 431 496 36,000  Level FlightAware ADS-B (EPSY / SZY)
06:32AM 52.3017 20.7976 244° Southwest 431 496 36,000  Level FlightAware ADS-B (EPSY / SZY)
06:32AM 52.2730 20.7025 244° Southwest 432 497 36,000  Level FlightAware ADS-B (EPSY / SZY)
06:33AM 52.2408 20.6182 238° Southwest 434 499 36,000  Level FlightAware ADS-B (EPSY / SZY)
06:34AM 52.1867 20.4984 234° Southwest 436 502 36,000  Level FlightAware ADS-B (EPSY / SZY)
06:34AM 52.1545 20.4134 238° Southwest 436 502 36,000  Level FlightAware ADS-B (EPSY / SZY)
06:35AM 52.1213 20.2914 246° West 434 499 36,000  Level FlightAware ADS-B (EPSY / SZY)
06:35AM 52.1006 20.1936 251° West 435 501 36,000  Level FlightAware ADS-B (EPSY / SZY)
06:36AM 52.0813 20.1042 251° West 435 501 36,000  Level FlightAware ADS-B (EPSY / SZY)
06:36AM 52.0557 19.9877 250° West 436 502 36,000  Level FlightAware ADS-B (EPSY / SZY)
06:37AM 52.0286 19.8647 250° West 435 501 36,000  Level FlightAware ADS-B (EPSY / SZY)
06:38AM 52.0090 19.7737 251° West 435 501 36,000  Level FlightAware ADS-B (EPSY / SZY)
06:38AM 51.9881 19.6774 251° West 435 501 36,000  Level FlightAware ADS-B (EPSY / SZY)
06:39AM 51.9602 19.5492 251° West 435 501 36,000  Level FlightAware ADS-B (EPSY / SZY)
06:39AM 51.9402 19.4584 250° West 435 501 36,000  Level FlightAware ADS-B (EPSY / SZY)
06:40AM 51.9090 19.3177 250° West 437 503 36,000  Level FlightAware ADS-B (EPSY / SZY)
06:41AM 51.8883 19.2246 250° West 438 504 36,000  Level FlightAware ADS-B (EPSY / SZY)
06:41AM 51.8679 19.1330 250° West 437 503 36,000  Level FlightAware ADS-B (EPSY / SZY)
06:42AM 51.8488 19.0472 250° West 437 503 36,000  Level FlightAware ADS-B (EPSY / SZY)
06:42AM 51.8284 18.9534 251° West 437 503 36,000  Level FlightAware ADS-B (EPSY / SZY)
06:43AM 51.7973 18.8121 250° West 437 503 36,000  Level FlightAware ADS-B (EPSY / SZY)
06:43AM 51.7733 18.7034 250° West 438 504 36,000  Level FlightAware ADS-B (EPSY / SZY)
06:44AM 51.7496 18.5966 250° West 439 505 36,000  Level FlightAware ADS-B (EPSY / SZY)
06:45AM 51.7280 18.5003 250° West 439 505 36,000  Level FlightAware ADS-B (EPSY / SZY)
06:45AM 51.7100 18.4197 250° West 439 505 36,000  Level FlightAware ADS-B (EPSY / SZY)
06:46AM 51.6826 18.2982 250° West 439 505 36,000  Level FlightAware ADS-B (EGPD / ABZ)
06:46AM 51.6600 18.1991 250° West 438 504 36,000  Level FlightAware ADS-B (EGPD / ABZ)
06:47AM 51.6371 18.0983 250° West 437 503 36,000  Level FlightAware ADS-B (EGPD / ABZ)
06:47AM 51.6064 17.9646 250° West 438 504 36,000  Level FlightAware ADS-B (EGPD / ABZ)
06:48AM 51.5780 17.8416 250° West 439 505 36,000  Level FlightAware ADS-B (EGPD / ABZ)
06:49AM 51.5609 17.7676 250° West 440 506 36,000  Level FlightAware ADS-B (EGPD / ABZ)
06:49AM 51.5380 17.6691 250° West 441 507 36,000  Level FlightAware ADS-B (EGPD / ABZ)
06:50AM 51.5062 17.5327 249° West 442 509 36,000  Level FlightAware ADS-B (EGPD / ABZ)
06:51AM 51.4670 17.3650 249° West 442 509 36,000  Level FlightAware
06:51AM 51.4430 17.2660 249° West 441 507 36,000  Level FlightAware
06:52AM 51.4200 17.1700 249° West 440 506 36,000  Level FlightAware
06:52AM 51.3920 17.0500 250° West 441 507 36,000  Level FlightAware
06:54AM 51.3440 16.8500 249° West 442 509 36,000  Level FlightAware
06:55AM 51.2980 16.6600 249° West 443 510 36,000  Level FlightAware
06:55AM 51.2700 16.5490 248° West 442 509 36,000  Level FlightAware
06:56AM 51.2410 16.4280 249° West 442 509 36,000  Level FlightAware
06:56AM 51.2140 16.3190 248° West 442 509 36,000  Level FlightAware
06:57AM 51.1870 16.2120 248° West 442 509 36,000  Level FlightAware
06:58AM 51.1600 16.1040 248° West 441 507 36,000  Level FlightAware
06:58AM 51.1340 16.0000 248° West 440 506 36,000  Level FlightAware
06:59AM 51.1070 15.8940 248° West 440 506 36,000  Level FlightAware
07:00AM 51.0690 15.7430 248° West 442 509 36,000  Level FlightAware
07:00AM 51.0410 15.6350 248° West 442 509 36,000  Level FlightAware
07:01AM 51.0130 15.5250 248° West 442 509 36,000  Level FlightAware
07:01AM 50.9870 15.4280 247° West 444 511 36,000  Level FlightAware
07:02AM 50.9560 15.3210 245° Southwest 444 511 36,000  Level FlightAware
07:03AM 50.9250 15.2140 245° Southwest 444 511 36,000  Level FlightAware
07:03AM 50.8930 15.1040 245° Southwest 444 511 36,000  Level FlightAware
07:04AM 50.8340 14.9020 245° Southwest 443 510 36,000  Level FlightAware
07:05AM 51.1149 15.9247 66° East 441 507 36,000  Level FlightAware ADS-B (LKPR / PRG)
07:05AM 50.7920 14.7570 247° West 444 511 36,000  Level FlightAware
07:06AM 50.7620 14.6570 245° Southwest 443 510 36,000  Level FlightAware
07:06AM 50.7320 14.5530 246° West 445 512 36,000  Level FlightAware
07:07AM 50.6957 14.4327 245° Southwest 446 513 36,000  Level FlightAware ADS-B (LKPR / PRG)
07:08AM 50.6682 14.3406 245° Southwest 446 513 36,000  Level FlightAware ADS-B (LKPR / PRG)
07:08AM 50.6373 14.2378 245° Southwest 448 516 36,000  Level FlightAware ADS-B (LKPR / PRG)
07:09AM 50.6082 14.1412 245° Southwest 449 517 36,000  Level FlightAware ADS-B (LKPR / PRG)
07:09AM 50.5794 14.0456 245° Southwest 450 518 36,000  Level FlightAware ADS-B (LKPR / PRG)
07:10AM 50.5482 13.9432 244° Southwest 451 519 36,000  Level FlightAware ADS-B (LKPR / PRG)
07:10AM 50.5177 13.8431 244° Southwest 452 520 36,000  Level FlightAware ADS-B (LKPR / PRG)
07:11AM 50.4877 13.7449 244° Southwest 452 520 36,000  Level FlightAware ADS-B (LKPR / PRG)
07:12AM 50.4538 13.6349 244° Southwest 453 521 36,000  Level FlightAware ADS-B (LKPR / PRG)
07:12AM 50.4180 13.5190 244° Southwest 454 522 36,000  Level FlightAware ADS-B (LKPR / PRG)
07:13AM 50.3912 13.4322 244° Southwest 456 525 36,000  Level FlightAware ADS-B (LKPR / PRG)
07:13AM 50.3799 13.3829 250° West 451 519 36,000  Level FlightAware ADS-B (LKPR / PRG)
07:14AM 50.3724 13.2724 264° West 452 520 36,000  Level FlightAware ADS-B (LKPR / PRG)
07:14AM 50.3630 13.1227 264° West 453 521 36,000  Level FlightAware ADS-B (LKPR / PRG)
07:15AM 50.3520 12.9580 264° West 454 522 36,000  Level FlightAware
07:16AM 50.3420 12.8030 264° West 454 522 36,000  Level FlightAware
07:17AM 50.3340 12.6890 264° West 453 521 36,000  Level FlightAware
07:17AM 50.3220 12.5200 264° West 451 519 36,000  Level FlightAware
07:18AM 50.3110 12.3670 264° West 448 516 36,000  Level FlightAware
07:19AM 50.3050 12.2780 264° West 448 516 36,000  Level FlightAware
07:19AM 50.2990 12.1930 264° West 449 517 36,000  Level FlightAware
07:20AM 50.2920 12.1020 263° West 449 517 36,000  Level FlightAware
07:20AM 50.2820 11.9650 264° West 450 518 36,000  Level FlightAware
07:22AM 50.2630 11.7230 263° West 453 521 36,000  Level FlightAware
07:23AM 50.2480 11.5250 263° West 455 524 36,000  Level FlightAware
07:23AM 50.2390 11.4120 263° West 457 526 36,000  Level FlightAware
07:24AM 50.2310 11.3250 262° West 458 527 36,000  Level FlightAware
07:24AM 50.2180 11.1570 263° West 457 526 36,000  Level FlightAware
07:25AM 50.2070 11.0230 263° West 457 526 36,000  Level FlightAware
07:26AM 50.1900 10.8330 262° West 457 526 36,000  Level FlightAware
07:27AM 50.1780 10.6910 263° West 458 527 36,000  Level FlightAware
07:28AM 50.1660 10.5480 263° West 460 529 36,000  Level FlightAware
07:28AM 50.1530 10.4050 262° West 462 532 36,000  Level FlightAware
07:29AM 50.1470 10.2970 265° West 465 535 36,000  Level FlightAware
07:30AM 50.1430 10.0950 268° West 474 545 36,000  Level FlightAware
07:31AM 50.1400 9.9340 268° West 484 557 36,000  Level FlightAware
07:31AM 50.1370 9.8040 268° West 485 558 36,000  Level FlightAware
07:32AM 50.1340 9.6680 268° West 482 555 36,000  Level FlightAware
07:33AM 50.1300 9.5280 268° West 481 554 36,000  Level FlightAware
07:33AM 50.1270 9.4090 268° West 481 554 36,000  Level FlightAware
07:34AM 50.1220 9.2310 268° West 482 555 36,000  Level FlightAware
07:34AM 50.1190 9.1390 267° West 484 557 36,000  Level FlightAware
07:35AM 50.1140 8.9650 268° West 488 562 36,000  Level FlightAware
07:36AM 50.1110 8.8810 267° West 492 566 36,000  Level FlightAware
07:36AM 50.1070 8.7460 267° West 496 571 36,000  Level FlightAware
07:37AM 50.1010 8.5860 267° West 495 570 36,000  Level FlightAware
07:38AM 50.0950 8.4060 267° West 499 574 36,000  Level FlightAware
07:39AM 50.0890 8.2490 267° West 506 582 36,000  Level FlightAware
07:39AM 50.0840 8.1150 267° West 506 582 36,000  Level FlightAware
07:40AM 50.0770 7.9440 266° West 505 581 36,000  Level FlightAware
07:41AM 50.0680 7.7180 267° West 506 582 36,000  Level FlightAware
07:41AM 50.0640 7.6190 266° West 507 583 36,000  Level FlightAware
07:42AM 50.0560 7.4470 266° West 508 585 36,000  Level FlightAware
07:43AM 50.0490 7.2920 266° West 508 585 36,000  Level FlightAware
07:43AM 50.0440 7.1810 266° West 509 586 36,000  Level FlightAware
07:44AM 50.0370 7.0420 266° West 511 588 36,000  Level FlightAware
07:45AM 50.0290 6.8820 266° West 513 590 36,000  Level FlightAware
07:45AM 50.0230 6.7540 266° West 515 593 36,000  Level FlightAware
07:46AM 50.0150 6.5830 266° West 519 597 36,000  Level FlightAware
07:47AM 49.9970 6.4670 256° West 525 604 36,000  Level FlightAware
07:47AM 49.9650 6.3110 252° West 526 605 36,000  Level FlightAware
07:48AM 49.9390 6.1600 255° West 529 609 36,000  Level FlightAware
07:49AM 49.9160 6.0360 254° West 532 612 36,000 60 Level FlightAware
07:49AM 49.8900 5.8940 254° West 534 615 36,100 420 Climbing FlightAware
07:50AM 49.8650 5.7580 254° West 533 613 36,600 720 Climbing FlightAware
07:51AM 49.8420 5.6340 254° West 531 611 37,000 300 Climbing FlightAware
07:51AM 49.8180 5.5080 254° West 532 612 37,000  Level FlightAware
07:52AM 49.7870 5.3500 253° West 533 613 37,000  Level FlightAware
07:52AM 49.7630 5.2250 253° West 533 613 37,000  Level FlightAware
07:53AM 49.7340 5.0700 254° West 532 612 37,000  Level FlightAware
07:54AM 49.7100 4.9480 253° West 533 613 37,000  Level FlightAware
07:54AM 49.6880 4.8380 253° West 536 617 37,000  Level FlightAware
07:55AM 49.6620 4.7060 253° West 537 618 37,000  Level FlightAware
07:55AM 49.6420 4.6040 253° West 538 619 37,000  Level FlightAware
07:56AM 49.6160 4.4730 253° West 540 621 37,000  Level FlightAware
07:57AM 49.5880 4.3350 253° West 540 621 37,000  Level FlightAware
07:57AM 49.5570 4.1800 253° West 540 621 37,000  Level FlightAware
07:57AM 49.5491 4.1438 253° West 1 1 37,000  Level FlightAware UK
07:58AM 49.5330 4.0620 253° West 540 621 37,000  Level FlightAware
07:58AM 49.5070 3.9360 252° West 541 623 37,000  Level FlightAware
07:59AM 49.4773 3.7934 252° West 1 1 37,000  Level FlightAware UK
07:59AM 49.4740 3.7760 252° West 543 625 37,000  Level FlightAware
08:00AM 49.4450 3.6400 252° West 542 624 37,000  Level FlightAware
08:00AM 49.4408 3.6174 252° West 1 1 37,000  Level FlightAware UK
08:00AM 49.4210 3.5240 252° West 544 626 37,000  Level FlightAware
08:00AM 49.4082 3.4631 252° West 1 1 37,000  Level FlightAware UK
08:01AM 49.3880 3.3680 252° West 544 626 37,000  Level FlightAware
08:01AM 49.3803 3.3314 252° West 1 1 37,000  Level FlightAware UK
08:01AM 49.3650 3.2620 252° West 545 627 37,000  Level FlightAware
08:02AM 49.3339 3.0174 252° West 1 1 37,000  Level FlightAware UK
08:03AM 49.3320 2.9880 252° West 541 623 37,000  Level FlightAware
08:03AM 49.3230 2.8370 252° West 544 626 37,000  Level FlightAware
08:04AM 49.3168 2.7452 252° West 1 1 37,000  Level FlightAware UK
08:04AM 49.3100 2.6620 252° West 548 631 37,000  Level FlightAware
08:04AM 49.3066 2.6080 252° West 1 1 37,000  Level FlightAware UK
08:05AM 49.3020 2.5470 264° West 548 631 37,000  Level FlightAware
08:05AM 49.2900 2.3970 264° West 549 632 37,000  Level FlightAware
08:05AM 49.2868 2.3530 264° West 458 527 37,000  Level FlightAware UK
08:06AM 49.2800 2.2650 264° West 551 634 37,000  Level FlightAware
08:06AM 49.2782 2.2376 264° West 456 525 37,000  Level FlightAware UK
08:06AM 49.2690 2.1210 264° West 458 527 37,000  Level FlightAware UK
08:06AM 49.2670 2.0980 264° West 555 639 37,000  Level FlightAware
08:07AM 49.2561 1.9586 264° West 452 520 37,000  Level FlightAware UK
08:07AM 49.2550 1.9510 264° West 558 642 37,000  Level FlightAware
08:08AM 49.2440 1.8170 264° West 562 647 37,000  Level FlightAware
08:08AM 49.2409 1.7704 264° West 462 532 37,000  Level FlightAware UK
08:08AM 49.2310 1.6540 264° West 562 647 37,000  Level FlightAware
08:08AM 49.2291 1.6283 264° West 456 525 37,000  Level FlightAware UK
08:09AM 49.2200 1.5250 264° West 563 648 37,000  Level FlightAware
08:09AM 49.2171 1.4872 264° West 456 525 37,000  Level FlightAware UK
08:09AM 49.2090 1.3937 263° West 566 651 37,000  Level FlightAware ADS-B
08:10AM 49.1920 1.1920 263° West 568 654 37,000  Level FlightAware
08:10AM 49.1909 1.1798 263° West 456 525 37,000  Level FlightAware UK
08:11AM 49.1794 1.0533 262° West 571 657 37,000  Level FlightAware ADS-B (LFBU / ANG)
08:11AM 49.1675 0.9176 262° West 458 527 37,000  Level FlightAware UK
08:12AM 49.1650 0.8850 262° West 571 657 37,000  Level FlightAware
08:12AM 49.1521 0.7473 262° West 573 659 37,000  Level FlightAware ADS-B (LFBU / ANG)
08:13AM 49.1400 0.6160 262° West 572 658 37,000  Level FlightAware
08:13AM 49.1342 0.5526 262° West 572 658 37,000  Level FlightAware ADS-B
08:14AM 49.1211 0.4158 262° West 460 529 37,000  Level FlightAware UK
08:14AM 49.1120 0.3140 262° West 571 657 37,000  Level FlightAware
08:15AM 49.0963 0.1539 262° West 460 529 37,000  Level FlightAware UK
08:15AM 49.0940 0.1330 262° West 571 657 37,000  Level FlightAware
08:15AM 49.0802 -0.0121 262° West 460 529 37,000  Level FlightAware UK
08:15AM 49.0790 -0.0240 262° West 570 656 37,000  Level FlightAware
08:16AM 49.0693 -0.1223 262° West 571 657 37,000  Level FlightAware ADS-B
08:16AM 49.0661 -0.1539 262° West 458 527 37,000  Level FlightAware UK
08:16AM 49.0600 -0.2130 261° West 570 656 37,000  Level FlightAware
08:17AM 49.0446 -0.3689 261° West 569 655 37,000  Level FlightAware ADS-B (EGJJ / JER)
08:17AM 49.0325 -0.4876 261° West 568 654 37,000  Level FlightAware ADS-B (EGJJ / JER)
08:18AM 49.0209 -0.6002 261° West 568 654 37,000  Level FlightAware ADS-B (EGJJ / JER)
08:18AM 49.0069 -0.7345 261° West 568 654 37,000  Level FlightAware ADS-B (EGJJ / JER)
08:19AM 48.9950 -0.8479 261° West 567 652 37,000  Level FlightAware ADS-B (EGJJ / JER)
08:19AM 48.9864 -0.9291 261° West 565 650 37,000  Level FlightAware ADS-B
08:20AM 48.9694 -1.0876 261° West 564 649 37,000  Level FlightAware ADS-B (EGJJ / JER)
08:20AM 48.9575 -1.1978 261° West 563 648 37,000  Level FlightAware ADS-B (EGJJ / JER)
08:21AM 48.9413 -1.3459 261° West 562 647 37,000  Level FlightAware ADS-B
08:21AM 48.9279 -1.4666 260° West 560 644 37,000  Level FlightAware ADS-B
08:22AM 48.9143 -1.5878 260° West 559 643 37,000  Level FlightAware ADS-B
08:22AM 48.9071 -1.6520 260° West 557 641 37,000  Level FlightAware ADS-B
08:23AM 48.8920 -1.7850 260° West 557 641 37,000  Level FlightAware ADS-B (EGJJ / JER)
08:23AM 48.8771 -1.9152 260° West 556 640 37,000  Level FlightAware ADS-B
08:24AM 48.8623 -2.0428 260° West 557 641 37,000  Level FlightAware ADS-B (EGJJ / JER)
08:24AM 48.8488 -2.1572 260° West 557 641 37,000  Level FlightAware ADS-B (EGJJ / JER)
08:25AM 48.8336 -2.2856 260° West 556 640 37,000  Level FlightAware ADS-B
08:26AM 48.8195 -2.4040 260° West 556 640 37,000  Level FlightAware ADS-B (EGJJ / JER)
08:26AM 48.8061 -2.5141 260° West 555 639 37,000  Level FlightAware ADS-B (EGJJ / JER)
08:27AM 48.7881 -2.6622 260° West 553 636 37,000  Level FlightAware ADS-B (EGJJ / JER)
08:27AM 48.7721 -2.7924 260° West 551 634 37,000  Level FlightAware ADS-B
08:28AM 48.7547 -2.9327 259° West 550 633 37,000  Level FlightAware ADS-B (EGJJ / JER)
08:29AM 48.7360 -3.0821 259° West 549 632 37,000  Level FlightAware ADS-B
08:29AM 48.7215 -3.1961 259° West 549 632 37,000  Level FlightAware ADS-B
08:30AM 48.7051 -3.3244 259° West 549 632 37,000  Level FlightAware ADS-B
08:30AM 48.6883 -3.4542 259° West 549 632 37,000  Level FlightAware ADS-B
08:31AM 48.6736 -3.5671 259° West 548 631 37,000  Level FlightAware ADS-B
08:31AM 48.6570 -3.6935 259° West 548 631 37,000  Level FlightAware ADS-B
08:32AM 48.6426 -3.8027 259° West 548 631 37,000  Level FlightAware ADS-B
08:32AM 48.6247 -3.9368 259° West 548 631 37,000  Level FlightAware ADS-B (EGJJ / JER)
08:33AM 48.6103 -4.0437 259° West 547 629 37,000  Level FlightAware ADS-B (EGJJ / JER)
08:33AM 48.5933 -4.1687 258° West 547 629 37,000  Level FlightAware ADS-B (EGJJ / JER)
08:34AM 48.5799 -4.2664 258° West 546 628 37,000  Level FlightAware ADS-B (EGJJ / JER)
08:34AM 48.5594 -4.4148 258° West 546 628 37,000  Level FlightAware ADS-B
08:35AM 48.5348 -4.5926 258° West 460 529 37,000  Level FlightAware UK
08:35AM 48.5322 -4.6100 258° West 544 626 37,000  Level FlightAware ADS-B
08:36AM 48.5138 -4.7400 258° West 543 625 37,000  Level FlightAware ADS-B
08:37AM 48.4947 -4.8737 258° West 542 624 37,000  Level FlightAware ADS-B
08:37AM 48.4780 -4.9900 258° West 542 624 37,000  Level FlightAware ADS-B
08:38AM 48.4488 -5.1914 258° West 542 624 37,000  Level FlightAware ADS-B
08:38AM 48.4321 -5.3053 258° West 543 625 37,000  Level FlightAware ADS-B
08:39AM 48.4068 -5.4749 258° West 458 527 37,000  Level FlightAware UK
08:39AM 48.4049 -5.4888 258° West 542 624 37,000  Level FlightAware ADS-B
08:40AM 48.3895 -5.5920 257° West 542 624 37,000  Level FlightAware ADS-B
08:40AM 48.3669 -5.7420 257° West 542 624 37,000  Level FlightAware ADS-B
08:41AM 48.3463 -5.8769 257° West 541 623 37,000  Level FlightAware ADS-B
08:42AM 48.3140 -6.0886 257° West 458 527 37,000  Level FlightAware UK
08:42AM 48.3114 -6.1045 257° West 539 620 37,000  Level FlightAware ADS-B
08:43AM 48.2941 -6.2152 257° West 538 619 37,000  Level FlightAware ADS-B
08:43AM 48.2720 -6.3564 257° West 536 617 37,000  Level FlightAware ADS-B
08:44AM 48.2498 -6.4971 257° West 536 617 37,000  Level FlightAware ADS-B
08:45AM 48.2256 -6.6529 257° West 458 527 37,000  Level FlightAware UK
08:45AM 48.2250 -6.6530 257° West 533 613 37,000  Level FlightAware
08:45AM 48.2006 -6.8042 256° West 534 615 37,000  Level FlightAware ADS-B
08:46AM 48.1813 -6.9232 256° West 533 613 37,000  Level FlightAware ADS-B
08:47AM 48.1610 -7.0468 256° West 532 612 37,000  Level FlightAware ADS-B
08:47AM 48.1380 -7.1850 256° West 532 612 37,000  Level FlightAware
08:47AM 48.1364 -7.2131 256° West 456 525 37,000  Level FlightAware UK
08:48AM 48.1190 -7.3030 256° West 532 612 37,000  Level FlightAware
08:48AM 48.1185 -7.3201 256° West 458 527 37,000  Level FlightAware UK
08:48AM 48.1004 -7.4266 256° West 458 527 37,000  Level FlightAware UK
08:48AM 48.0970 -7.4310 256° West 531 611 37,000  Level FlightAware
08:49AM 48.0730 -7.5740 256° West 531 611 37,000  Level FlightAware
08:50AM 48.0500 -7.7120 256° West 530 610 37,000  Level FlightAware
08:50AM 48.0250 -7.8550 255° West 529 609 37,000  Level FlightAware
08:51AM 48.0070 -7.9930 259° West 522 601 37,000 120 Level FlightAware
08:52AM 48.0010 -8.1370 266° West 517 595 37,200 480 Climbing FlightAware
08:52AM 48.0010 -8.2590 270° West 516 594 37,600 480 Climbing FlightAware
08:53AM 48.0010 -8.4590 270° West 518 596 38,000 240 Climbing FlightAware
08:54AM 48.0010 -8.5900 270° West 519 597 38,000  Level FlightAware
08:55AM 48.0000 -8.7840 270° West 517 595 38,000  Level FlightAware
08:55AM 48.0040 -8.9160 273° West 513 590 38,000  Level FlightAware
08:56AM 48.0090 -9.0850 273° West 514 592 38,000  Level FlightAware
08:57AM 48.0140 -9.3070 272° West 515 593 38,000  Level FlightAware
08:58AM 48.0180 -9.4700 272° West 516 594 38,000  Level FlightAware
08:58AM 48.0200 -9.5990 271° West 515 593 38,000  Level FlightAware
08:59AM 48.0230 -9.7210 272° West 516 594 38,000  Level FlightAware
09:01AM 48.0280 -10.0310 271° West 515 593 38,000  Level FlightAware
09:01AM 48.0290 -10.0900 271° West 514 592 38,000  Level FlightAware
09:02AM 48.0310 -10.3170 271° West 514 592 38,000  Level FlightAware
09:02AM 48.0320 -10.3890 271° West 514 592 38,000  Level FlightAware
09:03AM 48.0350 -10.5420 272° West 514 592 38,000  Level FlightAware
09:04AM 48.0370 -10.6940 271° West 514 592 38,000  Level FlightAware
09:04AM 48.0380 -10.8020 271° West 514 592 38,000  Level FlightAware
09:05AM 48.0390 -10.9630 271° West 516 594 38,000  Level FlightAware
09:06AM 48.0400 -11.1600 271° West 515 593 38,000  Level FlightAware
09:06AM 48.0400 -11.2690 270° West 515 593 38,000  Level FlightAware
09:07AM 48.0420 -11.4400 271° West 514 592 38,000  Level FlightAware
09:08AM 48.0420 -11.5330 270° West 514 592 38,000  Level FlightAware
09:09AM 48.0430 -11.7910 270° West 515 593 38,000  Level FlightAware
09:09AM 48.0430 -11.9060 270° West 515 593 38,000  Level FlightAware
09:10AM 48.0430 -12.0150 270° West 515 593 38,000  Level FlightAware
09:11AM 48.0430 -12.1540 270° West 515 593 38,000  Level FlightAware
09:11AM 48.0430 -12.2270 270° West 515 593 38,000  Level FlightAware
09:12AM 48.0430 -12.4210 270° West 515 593 38,000  Level FlightAware
09:13AM 48.0430 -12.5300 270° West 515 593 38,000  Level FlightAware
09:13AM 48.0430 -12.6390 270° West 515 593 38,000  Level FlightAware
09:14AM 48.0420 -12.7510 269° West 515 593 38,000  Level FlightAware
09:15AM 48.0420 -12.8600 270° West 515 593 38,000  Level FlightAware
09:15AM 48.0420 -12.9690 270° West 515 593 38,000  Level FlightAware
09:16AM 48.0420 -13.0780 270° West 515 593 38,000  Level FlightAware
09:17AM 48.0420 -13.2240 270° West 515 593 38,000  Level FlightAware
09:17AM 48.0420 -13.3330 270° West 515 593 38,000  Level FlightAware
09:18AM 48.0420 -13.4420 270° West 515 593 38,000  Level FlightAware
09:19AM 48.0420 -13.5870 270° West 515 593 38,000  Level FlightAware
09:22AM 48.0517 -14.0969 272° West  Level FlightAware Approximate
09:23AM 48.0546 -14.2779 271° West  Level FlightAware Approximate
09:24AM 48.0573 -14.4590 271° West  Level FlightAware Approximate
09:25AM 48.0596 -14.6401 271° West  Level FlightAware Approximate
09:26AM 48.0617 -14.8212 271° West  Level FlightAware Approximate
09:27AM 48.0634 -15.0023 271° West  Level FlightAware Approximate
09:28AM 48.0649 -15.1835 271° West  Level FlightAware Approximate
09:29AM 48.0661 -15.3646 271° West  Level FlightAware Approximate
09:30AM 48.0671 -15.5458 271° West  Level FlightAware Approximate
09:31AM 48.0677 -15.7269 270° West  Level FlightAware Approximate
09:32AM 48.0680 -15.9081 270° West  Level FlightAware Approximate
09:33AM 48.0681 -16.0893 270° West  Level FlightAware Approximate
09:34AM 48.0679 -16.2704 270° West  Level FlightAware Approximate
09:35AM 48.0674 -16.4516 270° West  Level FlightAware Approximate
09:36AM 48.0666 -16.6327 270° West  Level FlightAware Approximate
09:37AM 48.0655 -16.8139 270° West  Level FlightAware Approximate
09:38AM 48.0642 -16.9950 269° West  Level FlightAware Approximate
09:39AM 48.0625 -17.1761 269° West  Level FlightAware Approximate
09:40AM 48.0606 -17.3573 269° West  Level FlightAware Approximate
09:41AM 48.0584 -17.5384 269° West  Level FlightAware Approximate
09:42AM 48.0559 -17.7195 269° West  Level FlightAware Approximate
09:43AM 48.0531 -17.9005 269° West  Level FlightAware Approximate
09:44AM 48.0500 -18.0816 269° West  Level FlightAware Approximate
09:45AM 48.0467 -18.2626 268° West  Level FlightAware Approximate
09:46AM 48.0430 -18.4436 268° West  Level FlightAware Approximate
09:47AM 48.0391 -18.6246 268° West  Level FlightAware Approximate
09:48AM 48.0349 -18.8055 268° West  Level FlightAware Approximate
09:49AM 48.0304 -18.9864 268° West  Level FlightAware Approximate
09:50AM 48.0257 -19.1673 268° West  Level FlightAware Approximate
09:50AM 48.0000 -20.0000 265° West 446 513 38,000  Level ETMS Enhanced Traffic Management System
09:51AM 48.0206 -19.3482 268° West  Level FlightAware Approximate
09:52AM 48.0153 -19.5290 268° West  Level FlightAware Approximate
09:53AM 48.0096 -19.7097 267° West  Level FlightAware Approximate
09:54AM 48.0037 -19.8905 267° West  Level FlightAware Approximate
09:55AM 47.9959 -20.0737 265° West  Level FlightAware Approximate
09:56AM 47.9215 -21.2918 264° West 446 513 38,000  Level FlightAware Transoceanic
09:57AM 47.9091 -21.4760 264° West 446 513 38,000  Level FlightAware Transoceanic
09:58AM 47.8964 -21.6601 264° West 446 513 38,000  Level FlightAware Transoceanic
09:59AM 47.8834 -21.8441 264° West 446 513 38,000  Level FlightAware Transoceanic
10:00AM 47.8701 -22.0281 264° West 446 513 38,000  Level FlightAware Transoceanic
10:01AM 47.8565 -22.2119 264° West 446 513 38,000  Level FlightAware Transoceanic
10:02AM 47.8427 -22.3956 264° West 446 513 38,000  Level FlightAware Transoceanic
10:03AM 47.8285 -22.5793 263° West 446 513 38,000  Level FlightAware Transoceanic
10:04AM 47.8140 -22.7628 263° West 446 513 38,000  Level FlightAware Transoceanic
10:05AM 47.7993 -22.9463 263° West 446 513 38,000  Level FlightAware Transoceanic
10:06AM 47.7842 -23.1296 263° West 446 513 38,000  Level FlightAware Transoceanic
10:07AM 47.7689 -23.3128 263° West 446 513 38,000  Level FlightAware Transoceanic
10:08AM 47.7533 -23.4959 263° West 446 513 38,000  Level FlightAware Transoceanic
10:09AM 47.7374 -23.6789 263° West 446 513 38,000  Level FlightAware Transoceanic
10:10AM 47.7212 -23.8618 262° West 446 513 38,000  Level FlightAware Transoceanic
10:11AM 47.7047 -24.0446 262° West 446 513 38,000  Level FlightAware Transoceanic
10:12AM 47.6879 -24.2273 262° West 446 513 38,000  Level FlightAware Transoceanic
10:13AM 47.6708 -24.4098 262° West 446 513 38,000  Level FlightAware Transoceanic
10:14AM 47.6535 -24.5922 262° West 446 513 38,000  Level FlightAware Transoceanic
10:15AM 47.6358 -24.7745 262° West 446 513 38,000  Level FlightAware Transoceanic
10:16AM 47.6179 -24.9567 262° West 446 513 38,000  Level FlightAware Transoceanic
10:17AM 47.5996 -25.1388 261° West 446 513 38,000  Level FlightAware Transoceanic
10:18AM 47.5811 -25.3207 261° West 446 513 38,000  Level FlightAware Transoceanic
10:19AM 47.5623 -25.5025 261° West 446 513 38,000  Level FlightAware Transoceanic
10:20AM 47.5432 -25.6841 261° West 446 513 38,000  Level FlightAware Transoceanic
10:21AM 47.5238 -25.8657 261° West 446 513 38,000  Level FlightAware Transoceanic
10:22AM 47.5042 -26.0470 261° West 446 513 38,000  Level FlightAware Transoceanic
10:23AM 47.4842 -26.2283 261° West 446 513 38,000  Level FlightAware Transoceanic
10:24AM 47.4640 -26.4094 261° West 446 513 38,000  Level FlightAware Transoceanic
10:25AM 47.4435 -26.5904 260° West 446 513 38,000  Level FlightAware Transoceanic
10:26AM 47.4226 -26.7712 260° West 446 513 38,000  Level FlightAware Transoceanic
10:27AM 47.4016 -26.9519 260° West 446 513 38,000  Level FlightAware Transoceanic
10:28AM 47.3802 -27.1325 260° West 446 513 38,000  Level FlightAware Transoceanic
10:29AM 47.3585 -27.3129 260° West 446 513 38,000  Level FlightAware Transoceanic
10:30AM 47.3366 -27.4931 260° West 446 513 38,000  Level FlightAware Transoceanic
10:31AM 47.3144 -27.6732 260° West 446 513 38,000  Level FlightAware Transoceanic
10:32AM 47.2919 -27.8531 259° West 446 513 38,000  Level FlightAware Transoceanic
10:33AM 47.2691 -28.0329 259° West 446 513 38,000  Level FlightAware Transoceanic
10:34AM 47.2460 -28.2126 259° West 446 513 38,000  Level FlightAware Transoceanic
10:35AM 47.2227 -28.3920 259° West 446 513 38,000  Level FlightAware Transoceanic
10:36AM 47.1990 -28.5714 259° West 446 513 38,000  Level FlightAware Transoceanic
10:37AM 47.1751 -28.7505 259° West 446 513 38,000  Level FlightAware Transoceanic
10:38AM 47.1510 -28.9295 259° West 446 513 38,000  Level FlightAware Transoceanic
10:39AM 47.1265 -29.1084 259° West 446 513 38,000  Level FlightAware Transoceanic
10:40AM 47.1017 -29.2870 258° West 446 513 38,000  Level FlightAware Transoceanic
10:41AM 47.0767 -29.4655 258° West 446 513 38,000  Level FlightAware Transoceanic
10:42AM 47.0514 -29.6439 258° West 446 513 38,000  Level FlightAware Transoceanic
10:43AM 47.0258 -29.8220 258° West 446 513 38,000  Level FlightAware Transoceanic
10:44AM 47.0006 -29.9957 258° West  Level FlightAware Approximate
10:45AM 46.9752 -30.1692 258° West  Level FlightAware Approximate
10:46AM 46.9610 -30.1586 250° West  Level FlightAware Approximate
10:47AM 46.9196 -30.3253 250° West  Level FlightAware Approximate
10:48AM 46.8781 -30.4917 250° West  Level FlightAware Approximate
10:49AM 46.8363 -30.6578 250° West  Level FlightAware Approximate
10:50AM 46.7942 -30.8237 250° West  Level FlightAware Approximate
10:51AM 46.7519 -30.9893 250° West  Level FlightAware Approximate
10:52AM 46.7094 -31.1547 249° West  Level FlightAware Approximate
10:53AM 46.6667 -31.3198 249° West  Level FlightAware Approximate
10:54AM 46.6237 -31.4847 249° West  Level FlightAware Approximate
10:55AM 46.5804 -31.6492 249° West  Level FlightAware Approximate
10:56AM 46.5370 -31.8136 249° West  Level FlightAware Approximate
10:57AM 46.4933 -31.9776 249° West  Level FlightAware Approximate
10:58AM 46.4493 -32.1414 249° West  Level FlightAware Approximate
10:59AM 46.4051 -32.3049 249° West  Level FlightAware Approximate
11:00AM 46.3607 -32.4682 249° West  Level FlightAware Approximate
11:01AM 46.3161 -32.6312 248° West  Level FlightAware Approximate
11:02AM 46.2712 -32.7939 248° West  Level FlightAware Approximate
11:03AM 46.2261 -32.9564 248° West  Level FlightAware Approximate
11:04AM 46.1809 -33.1186 248° West  Level FlightAware Approximate
11:05AM 46.1357 -33.2807 248° West  Level FlightAware Approximate
11:06AM 46.0901 -33.4426 248° West  Level FlightAware Approximate
11:07AM 46.0444 -33.6041 248° West  Level FlightAware Approximate
11:08AM 45.9985 -33.7654 248° West  Level FlightAware Approximate
11:09AM 45.9523 -33.9265 248° West  Level FlightAware Approximate
11:10AM 45.9059 -34.0872 248° West  Level FlightAware Approximate
11:11AM 45.8596 -34.2479 248° West  Level FlightAware Approximate
11:12AM 45.8129 -34.4082 247° West  Level FlightAware Approximate
11:13AM 45.7661 -34.5683 247° West  Level FlightAware Approximate
11:14AM 45.7190 -34.7281 247° West  Level FlightAware Approximate
11:15AM 45.6717 -34.8877 247° West  Level FlightAware Approximate
11:16AM 45.6242 -35.0470 247° West  Level FlightAware Approximate
11:17AM 45.5764 -35.2060 247° West  Level FlightAware Approximate
11:18AM 45.5285 -35.3647 247° West  Level FlightAware Approximate
11:19AM 45.4803 -35.5232 247° West  Level FlightAware Approximate
11:20AM 45.4319 -35.6814 246° West  Level FlightAware Approximate
11:21AM 45.3833 -35.8393 246° West  Level FlightAware Approximate
11:22AM 45.3344 -35.9970 246° West  Level FlightAware Approximate
11:23AM 45.2854 -36.1544 246° West  Level FlightAware Approximate
11:24AM 45.2361 -36.3115 246° West  Level FlightAware Approximate
11:25AM 45.1867 -36.4683 246° West  Level FlightAware Approximate
11:26AM 45.1370 -36.6249 246° West  Level FlightAware Approximate
11:27AM 45.0871 -36.7811 246° West  Level FlightAware Approximate
11:28AM 45.0369 -36.9372 246° West  Level FlightAware Approximate
11:29AM 44.9868 -37.0930 246° West  Level FlightAware Approximate
11:30AM 44.9365 -37.2486 246° West  Level FlightAware Approximate
11:31AM 44.8860 -37.4040 245° Southwest  Level FlightAware Approximate
11:32AM 44.8353 -37.5591 245° Southwest  Level FlightAware Approximate
11:33AM 44.7844 -37.7139 245° Southwest  Level FlightAware Approximate
11:34AM 44.7333 -37.8685 245° Southwest  Level FlightAware Approximate
11:35AM 44.6820 -38.0228 245° Southwest  Level FlightAware Approximate
11:36AM 44.6305 -38.1768 245° Southwest  Level FlightAware Approximate
11:37AM 44.5788 -38.3305 245° Southwest  Level FlightAware Approximate
11:38AM 44.5268 -38.4840 245° Southwest  Level FlightAware Approximate
11:39AM 44.4747 -38.6371 245° Southwest  Level FlightAware Approximate
11:40AM 44.4224 -38.7901 244° Southwest  Level FlightAware Approximate
11:41AM 44.3698 -38.9427 244° Southwest  Level FlightAware Approximate
11:42AM 44.3172 -39.0952 244° Southwest  Level FlightAware Approximate
11:43AM 44.2646 -39.2475 244° Southwest  Level FlightAware Approximate
11:44AM 44.2117 -39.3995 244° Southwest  Level FlightAware Approximate
11:45AM 44.1587 -39.5512 244° Southwest  Level FlightAware Approximate
11:46AM 44.1054 -39.7027 244° Southwest  Level FlightAware Approximate
11:47AM 44.0519 -39.8539 244° Southwest  Level FlightAware Approximate
11:48AM 43.9987 -40.0051 251° West  Level FlightAware Approximate
11:49AM 43.9598 -40.1644 251° West  Level FlightAware Approximate
11:50AM 43.9207 -40.3235 251° West  Level FlightAware Approximate
11:51AM 43.8813 -40.4824 251° West  Level FlightAware Approximate
11:51AM 44.0000 -40.0000 251° West 413 475 38,000  Level New York Oceanic (ODAPS)
11:52AM 43.8417 -40.6410 251° West  Level FlightAware Approximate
11:53AM 43.8018 -40.7995 251° West  Level FlightAware Approximate
11:54AM 43.7618 -40.9577 251° West  Level FlightAware Approximate
11:55AM 43.7215 -41.1158 251° West  Level FlightAware Approximate
11:56AM 43.6811 -41.2736 251° West  Level FlightAware Approximate
11:57AM 43.6404 -41.4312 250° West  Level FlightAware Approximate
11:57AM 43.7833 -40.8500 251° West 428 493 38,000  Level New York Oceanic (ODAPS)
11:58AM 43.7402 -41.0427 251° West 413 475 38,000  Level FlightAware Transoceanic
11:59AM 43.7023 -41.1909 250° West 413 475 38,000  Level FlightAware Transoceanic
12:00PM 43.6642 -41.3389 250° West 413 475 38,000  Level FlightAware Transoceanic
12:01PM 43.6260 -41.4867 250° West 413 475 38,000  Level FlightAware Transoceanic
12:02PM 43.5875 -41.6344 250° West 413 475 38,000  Level FlightAware Transoceanic
12:03PM 43.5466 -41.7706 250° West 428 493 38,000  Level FlightAware Transoceanic
12:04PM 43.5064 -41.9233 250° West 428 493 38,000  Level FlightAware Transoceanic
12:05PM 43.4660 -42.0759 250° West 428 493 38,000  Level FlightAware Transoceanic
12:06PM 43.4255 -42.2282 250° West 428 493 38,000  Level FlightAware Transoceanic
12:07PM 43.3847 -42.3803 250° West 428 493 38,000  Level FlightAware Transoceanic
12:08PM 43.3437 -42.5322 250° West 428 493 38,000  Level FlightAware Transoceanic
12:09PM 43.3025 -42.6839 249° West 428 493 38,000  Level FlightAware Transoceanic
12:10PM 43.2612 -42.8354 249° West 428 493 38,000  Level FlightAware Transoceanic
12:11PM 43.2196 -42.9867 249° West 428 493 38,000  Level FlightAware Transoceanic
12:11PM 43.2333 -42.9333 249° West 435 501 38,000  Level New York Oceanic (ODAPS)
12:12PM 43.1778 -43.1377 249° West 428 493 38,000  Level FlightAware Transoceanic
12:13PM 43.1358 -43.2886 249° West 428 493 38,000  Level FlightAware Transoceanic
12:14PM 43.0936 -43.4393 249° West 428 493 38,000  Level FlightAware Transoceanic
12:15PM 43.0513 -43.5898 249° West 428 493 38,000  Level FlightAware Transoceanic
12:16PM 43.0087 -43.7400 249° West 428 493 38,000  Level FlightAware Transoceanic
12:17PM 42.9728 -43.8630 249° West 435 501 38,000  Level FlightAware Transoceanic
12:18PM 42.9287 -44.0172 249° West 435 501 38,000  Level FlightAware Transoceanic
12:19PM 42.8843 -44.1712 248° West 435 501 38,000  Level FlightAware Transoceanic
12:20PM 42.8398 -44.3249 248° West 435 501 38,000  Level FlightAware Transoceanic
12:21PM 42.7950 -44.4784 248° West 435 501 38,000  Level FlightAware Transoceanic
12:22PM 42.7500 -44.6317 248° West 435 501 38,000  Level FlightAware Transoceanic
12:23PM 42.7049 -44.7848 248° West 435 501 38,000  Level FlightAware Transoceanic
12:24PM 42.6595 -44.9377 248° West 435 501 38,000  Level FlightAware Transoceanic
12:25PM 42.6139 -45.0903 248° West 435 501 38,000  Level FlightAware Transoceanic
12:25PM 42.6333 -45.0667 248° West 443 510 38,000  Level New York Oceanic (ODAPS)
12:26PM 42.5681 -45.2427 248° West 435 501 38,000  Level FlightAware Transoceanic
12:27PM 42.5221 -45.3949 248° West 435 501 38,000  Level FlightAware Transoceanic
12:28PM 42.4759 -45.5468 248° West 435 501 38,000  Level FlightAware Transoceanic
12:29PM 42.4296 -45.6985 247° West 435 501 38,000  Level FlightAware Transoceanic
12:30PM 42.3830 -45.8500 247° West 435 501 38,000  Level FlightAware Transoceanic
12:31PM 42.3522 -45.9823 247° West 443 510 38,000  Level FlightAware Transoceanic
12:32PM 42.3047 -46.1341 247° West 443 510 38,000  Level FlightAware Transoceanic
12:33PM 42.2569 -46.2857 247° West 443 510 38,000  Level FlightAware Transoceanic
12:34PM 42.2090 -46.4370 247° West 443 510 38,000  Level FlightAware Transoceanic
12:35PM 42.1608 -46.5882 247° West 443 510 38,000  Level FlightAware Transoceanic
12:36PM 42.1125 -46.7391 247° West 443 510 38,000  Level FlightAware Transoceanic
12:37PM 42.0639 -46.8897 246° West 443 510 38,000  Level FlightAware Transoceanic
12:38PM 42.0152 -47.0401 246° West 443 510 38,000  Level FlightAware Transoceanic
12:38PM 41.9667 -47.1667 246° West 440 506 38,000  Level New York Oceanic (ODAPS)
12:39PM 41.9663 -47.1903 246° West 443 510 38,000  Level FlightAware Transoceanic
12:40PM 41.9171 -47.3403 246° West 443 510 38,000  Level FlightAware Transoceanic
12:41PM 41.8678 -47.4900 246° West 443 510 38,000  Level FlightAware Transoceanic
12:42PM 41.8183 -47.6395 246° West 443 510 38,000  Level FlightAware Transoceanic
12:43PM 41.7686 -47.7888 246° West 443 510 38,000  Level FlightAware Transoceanic
12:44PM 41.7186 -47.9378 246° West 443 510 38,000  Level FlightAware Transoceanic
12:45PM 41.6689 -48.0705 246° West 440 506 38,000  Level FlightAware Transoceanic
12:46PM 41.6186 -48.2204 246° West 440 506 38,000  Level FlightAware Transoceanic
12:47PM 41.5681 -48.3699 246° West 440 506 38,000  Level FlightAware Transoceanic
12:48PM 41.5174 -48.5193 246° West 440 506 38,000  Level FlightAware Transoceanic
12:49PM 41.4666 -48.6684 245° Southwest 440 506 38,000  Level FlightAware Transoceanic
12:50PM 41.4155 -48.8173 245° Southwest 440 506 38,000  Level FlightAware Transoceanic
12:51PM 41.3642 -48.9660 245° Southwest 440 506 38,000  Level FlightAware Transoceanic
12:52PM 41.3128 -49.1144 245° Southwest 440 506 38,000  Level FlightAware Transoceanic
12:52PM 41.2667 -49.2500 245° Southwest 443 510 38,000  Level New York Oceanic (ODAPS)
12:53PM 41.2611 -49.2626 245° Southwest 440 506 38,000  Level FlightAware Transoceanic
12:54PM 41.2093 -49.4105 245° Southwest 440 506 38,000  Level FlightAware Transoceanic
12:55PM 41.1572 -49.5583 245° Southwest 440 506 38,000  Level FlightAware Transoceanic
12:56PM 41.1050 -49.7057 245° Southwest 440 506 38,000  Level FlightAware Transoceanic
12:57PM 41.0526 -49.8530 245° Southwest 440 506 38,000  Level FlightAware Transoceanic
12:57PM 41.0000 -50.0000 246° West 442 509 38,000  Level New York Oceanic (ODAPS)
12:58PM 41.0000 -50.0000 246° West 440 506 38,000  Level FlightAware Transoceanic
12:59PM 40.9491 -50.1509 246° West 443 510 38,000  Level FlightAware Transoceanic
01:00PM 40.8980 -50.3015 246° West 443 510 38,000  Level FlightAware Transoceanic
01:01PM 40.8468 -50.4519 246° West 443 510 38,000  Level FlightAware Transoceanic
01:02PM 40.7953 -50.6021 246° West 443 510 38,000  Level FlightAware Transoceanic
01:03PM 40.7473 -50.7415 245° Southwest 442 509 38,000  Level FlightAware Transoceanic
01:04PM 40.6962 -50.8891 245° Southwest 442 509 38,000  Level FlightAware Transoceanic
01:05PM 40.6449 -51.0365 245° Southwest 442 509 38,000  Level FlightAware Transoceanic
01:06PM 40.5934 -51.1837 245° Southwest 442 509 38,000  Level FlightAware Transoceanic
01:06PM 40.5500 -51.3167 245° Southwest 442 509 38,000  Level New York Oceanic (ODAPS)
01:07PM 40.5418 -51.3306 245° Southwest 442 509 38,000  Level FlightAware Transoceanic
01:08PM 40.4899 -51.4773 245° Southwest 442 509 38,000  Level FlightAware Transoceanic
01:09PM 40.4379 -51.6238 245° Southwest 442 509 38,000  Level FlightAware Transoceanic
01:10PM 40.3857 -51.7700 245° Southwest 442 509 38,000  Level FlightAware Transoceanic
01:11PM 40.3332 -51.9161 245° Southwest 442 509 38,000  Level FlightAware Transoceanic
01:12PM 40.2883 -52.0492 245° Southwest 442 509 38,000  Level FlightAware Transoceanic
01:13PM 40.2354 -52.1950 245° Southwest 442 509 38,000  Level FlightAware Transoceanic
01:14PM 40.1823 -52.3406 244° Southwest 442 509 38,000  Level FlightAware Transoceanic
01:15PM 40.1291 -52.4860 244° Southwest 442 509 38,000  Level FlightAware Transoceanic
01:16PM 40.0756 -52.6311 244° Southwest 442 509 38,000  Level FlightAware Transoceanic
01:17PM 40.0220 -52.7760 244° Southwest 442 509 38,000  Level FlightAware Transoceanic
01:18PM 39.9682 -52.9207 244° Southwest 442 509 38,000  Level FlightAware Transoceanic
01:19PM 39.9142 -53.0652 244° Southwest 442 509 38,000  Level FlightAware Transoceanic
01:20PM 39.8601 -53.2094 244° Southwest 442 509 38,000  Level FlightAware Transoceanic
01:20PM 39.8000 -53.3500 244° Southwest 438 504 38,000  Level New York Oceanic (ODAPS)
01:21PM 39.8058 -53.3534 244° Southwest 442 509 38,000  Level FlightAware Transoceanic
01:22PM 39.7512 -53.4972 244° Southwest 442 509 38,000  Level FlightAware Transoceanic
01:23PM 39.6965 -53.6407 244° Southwest 442 509 38,000  Level FlightAware Transoceanic
01:24PM 39.6417 -53.7840 244° Southwest 442 509 38,000  Level FlightAware Transoceanic
01:25PM 39.5866 -53.9271 243° Southwest 442 509 38,000  Level FlightAware Transoceanic
01:26PM 39.5314 -54.0700 243° Southwest 442 509 38,000  Level FlightAware Transoceanic
01:27PM 39.4235 -54.3317 243° Southwest 438 504 38,000  Level FlightAware Transoceanic
01:28PM 39.3690 -54.4711 243° Southwest 438 504 38,000  Level FlightAware Transoceanic
01:29PM 39.3144 -54.6103 243° Southwest 438 504 38,000  Level FlightAware Transoceanic
01:30PM 39.2596 -54.7492 243° Southwest 438 504 38,000  Level FlightAware Transoceanic
01:31PM 39.2047 -54.8879 243° Southwest 438 504 38,000  Level FlightAware Transoceanic
01:32PM 39.1496 -55.0264 243° Southwest 438 504 38,000  Level FlightAware Transoceanic
01:33PM 39.0943 -55.1647 243° Southwest 438 504 38,000  Level FlightAware Transoceanic
01:34PM 39.0388 -55.3028 243° Southwest 438 504 38,000 720 Level FlightAware Transoceanic
01:34PM 39.0667 -55.2333 243° Southwest 425 489 39,000  Climbing New York Oceanic (ODAPS)
01:35PM 38.9832 -55.4406 243° Southwest 438 504 38,000 -660 Descending FlightAware Transoceanic
01:36PM 38.9275 -55.5783 242° Southwest 438 504 38,000  Level FlightAware Transoceanic
01:37PM 38.8715 -55.7157 242° Southwest 438 504 38,000  Level FlightAware Transoceanic
01:38PM 38.8154 -55.8529 242° Southwest 438 504 38,000  Level FlightAware Transoceanic
01:39PM 38.7592 -55.9899 242° Southwest 438 504 38,000 480 Level FlightAware Transoceanic
01:40PM 38.7448 -56.0247 242° Southwest 425 489 39,000 480 Climbing FlightAware Transoceanic
01:41PM 38.6906 -56.1559 242° Southwest 425 489 39,000  Level FlightAware Transoceanic
01:42PM 38.6363 -56.2868 242° Southwest 425 489 39,000  Level FlightAware Transoceanic
01:43PM 38.5819 -56.4176 242° Southwest 425 489 39,000  Level FlightAware Transoceanic
01:44PM 38.5273 -56.5482 242° Southwest 425 489 39,000  Level FlightAware Transoceanic
01:45PM 38.4725 -56.6786 242° Southwest 425 489 39,000  Level FlightAware Transoceanic
01:46PM 38.4176 -56.8088 242° Southwest 425 489 39,000  Level FlightAware Transoceanic
01:47PM 38.3626 -56.9388 242° Southwest 425 489 39,000  Level FlightAware Transoceanic
01:48PM 38.3074 -57.0686 242° Southwest 425 489 39,000  Level FlightAware Transoceanic
01:48PM 38.3167 -57.0500 241° Southwest 425 489 39,000  Level New York Oceanic (ODAPS)
01:49PM 38.2521 -57.1982 241° Southwest 425 489 39,000  Level FlightAware Transoceanic
01:50PM 38.1967 -57.3276 241° Southwest 425 489 39,000  Level FlightAware Transoceanic
01:51PM 38.1411 -57.4569 241° Southwest 425 489 39,000  Level FlightAware Transoceanic
01:52PM 38.0853 -57.5859 241° Southwest 425 489 39,000  Level FlightAware Transoceanic
01:53PM 38.0294 -57.7147 241° Southwest 425 489 39,000  Level FlightAware Transoceanic
01:54PM 37.9803 -57.8297 241° Southwest 425 489 39,000  Level FlightAware Transoceanic
01:55PM 37.9238 -57.9589 241° Southwest 425 489 39,000  Level FlightAware Transoceanic
01:56PM 37.8671 -58.0880 241° Southwest 425 489 39,000  Level FlightAware Transoceanic
01:57PM 37.8102 -58.2168 241° Southwest 425 489 39,000  Level FlightAware Transoceanic
01:58PM 37.7533 -58.3455 241° Southwest 425 489 39,000  Level FlightAware Transoceanic
01:59PM 37.6961 -58.4739 241° Southwest 425 489 39,000  Level FlightAware Transoceanic
02:00PM 37.6389 -58.6022 241° Southwest 425 489 39,000  Level FlightAware Transoceanic
02:01PM 37.5815 -58.7302 240° Southwest 425 489 39,000  Level FlightAware Transoceanic
02:02PM 37.5239 -58.8581 240° Southwest 425 489 39,000  Level FlightAware Transoceanic
02:02PM 37.5167 -58.8833 240° Southwest 436 502 39,000  Level New York Oceanic (ODAPS)
02:03PM 37.4663 -58.9858 240° Southwest 425 489 39,000  Level FlightAware Transoceanic
02:04PM 37.4085 -59.1132 240° Southwest 425 489 39,000  Level FlightAware Transoceanic
02:05PM 37.3505 -59.2405 240° Southwest 425 489 39,000  Level FlightAware Transoceanic
02:06PM 37.2924 -59.3676 240° Southwest 425 489 39,000  Level FlightAware Transoceanic
02:07PM 37.2342 -59.4944 240° Southwest 425 489 39,000  Level FlightAware Transoceanic
02:08PM 37.1301 -59.7223 240° Southwest 436 502 39,000  Level FlightAware Transoceanic
02:09PM 37.0652 -59.8613 240° Southwest 436 502 39,000  Level FlightAware Transoceanic
02:10PM 37.0000 -60.0000 221° Southwest 436 502 39,000  Level FlightAware Transoceanic
02:10PM 37.0000 -60.0000 221° Southwest 460 529 39,000  Level New York Oceanic (ODAPS)
02:11PM 36.9034 -60.1053 221° Southwest 436 502 39,000  Level FlightAware Transoceanic
02:12PM 36.8066 -60.2104 221° Southwest 436 502 39,000  Level FlightAware Transoceanic
02:13PM 36.7098 -60.3152 221° Southwest 436 502 39,000  Level FlightAware Transoceanic
02:14PM 36.6129 -60.4197 221° Southwest 436 502 39,000  Level FlightAware Transoceanic
02:15PM 36.5159 -60.5240 221° Southwest 436 502 39,000  Level FlightAware Transoceanic
02:15PM 36.4833 -60.5667 221° Southwest 460 529 39,000  Level New York Oceanic (ODAPS)
02:16PM 36.4188 -60.6280 221° Southwest 460 529 39,000  Level FlightAware Transoceanic
02:17PM 36.3217 -60.7318 221° Southwest 460 529 39,000  Level FlightAware Transoceanic
02:18PM 36.2244 -60.8352 221° Southwest 460 529 39,000  Level FlightAware Transoceanic
02:19PM 36.1270 -60.9385 221° Southwest 460 529 39,000  Level FlightAware Transoceanic
02:20PM 36.0296 -61.0415 220° Southwest 460 529 39,000  Level FlightAware Transoceanic
02:21PM 35.9321 -61.1442 220° Southwest 460 529 39,000  Level FlightAware Transoceanic
02:22PM 35.9039 -61.1803 220° Southwest 460 529 39,000  Level FlightAware Transoceanic
02:23PM 35.8071 -61.2817 220° Southwest 460 529 39,000  Level FlightAware Transoceanic
02:24PM 35.7101 -61.3828 220° Southwest 460 529 39,000  Level FlightAware Transoceanic
02:25PM 35.6131 -61.4837 220° Southwest 460 529 39,000  Level FlightAware Transoceanic
02:26PM 35.5160 -61.5843 220° Southwest 460 529 39,000  Level FlightAware Transoceanic
02:27PM 35.4188 -61.6847 220° Southwest 460 529 39,000  Level FlightAware Transoceanic
02:28PM 35.3215 -61.7849 220° Southwest 460 529 39,000  Level FlightAware Transoceanic
02:29PM 35.2241 -61.8848 220° Southwest 460 529 39,000  Level FlightAware Transoceanic
02:29PM 35.1333 -61.9833 220° Southwest 467 537 39,000  Level New York Oceanic (ODAPS)
02:30PM 35.1267 -61.9845 220° Southwest 460 529 39,000  Level FlightAware Transoceanic
02:31PM 35.0291 -62.0840 220° Southwest 460 529 39,000  Level FlightAware Transoceanic
02:31PM 34.9492 -62.1747 220° Southwest 468 539 39,000  Level New York Center
02:32PM 34.9315 -62.1832 220° Southwest 460 529 39,000  Level FlightAware Transoceanic
02:32PM 34.8381 -62.2800 218° Southwest 457 526 39,000  Level New York Center
02:33PM 34.8338 -62.2822 220° Southwest 460 529 39,000  Level FlightAware Transoceanic
02:33PM 34.7442 -62.3683 218° Southwest 478 550 39,000  Level New York Center
02:34PM 34.6486 -62.4919 227° Southwest 478 550 39,000  Level New York Center
02:35PM 34.5647 -62.6089 229° Southwest 472 543 39,000  Level New York Center
02:36PM 34.4886 -62.7147 229° Southwest 467 537 39,000  Level New York Center
02:37PM 34.3908 -62.8428 227° Southwest 472 543 39,000  Level New York Center
02:38PM 34.3092 -62.9614 230° Southwest 477 549 39,000  Level New York Center
02:39PM 34.2306 -63.0692 229° Southwest 477 549 39,000  Level New York Center
02:40PM 34.1369 -63.2008 229° Southwest 477 549 39,000  Level New York Center
02:41PM 34.0561 -63.3061 227° Southwest 477 549 39,000  Level New York Center
02:42PM 33.9619 -63.4350 229° Southwest 472 543 39,000  Level New York Center
02:43PM 33.8731 -63.5528 228° Southwest 478 550 39,000  Level New York Center
02:44PM 33.7939 -63.6572 228° Southwest 478 550 39,000  Level New York Center
02:45PM 33.6975 -63.7875 228° Southwest 473 544 39,000 -420 Level New York Center
02:46PM 33.6125 -63.9044 229° Southwest 473 544 38,200 -540 Descending New York Center
02:47PM 33.5350 -64.0078 228° Southwest 468 539 38,000 -120 Descending New York Center
02:48PM 33.4378 -64.1325 227° Southwest 468 539 38,000  Level New York Center
02:49PM 33.3603 -64.2383 229° Southwest 468 539 38,000  Level New York Center
02:50PM 33.2650 -64.3647 228° Southwest 468 539 38,000  Level New York Center
02:51PM 33.1814 -64.4778 229° Southwest 468 539 38,000  Level New York Center
02:52PM 33.1014 -64.5803 227° Southwest 473 544 38,000  Level New York Center
02:53PM 33.0156 -64.6956 228° Southwest 473 544 38,000  Level New York Center
02:54PM 32.9197 -64.8208 228° Southwest 473 544 38,000  Level New York Center
02:55PM 32.8297 -64.9383 228° Southwest 473 544 38,000  Level New York Center
02:56PM 32.7533 -65.0372 227° Southwest 473 544 38,000  Level New York Center
02:57PM 32.6550 -65.1622 227° Southwest 473 544 38,000  Level New York Center
02:58PM 32.5783 -65.2608 227° Southwest 466 536 38,000  Level New York Center
03:00PM 32.4654 -65.3885 224° Southwest  Level FlightAware Approximate
03:00PM 32.3953 -65.4961 224° Southwest 466 536 38,000  Level New York Center
03:01PM 32.3164 -65.5967 227° Southwest 466 536 38,000  Level New York Center
03:02PM 32.2236 -65.7172 228° Southwest 454 522 38,000  Level New York Center
03:03PM 32.1444 -65.8150 226° Southwest 454 522 38,000  Level New York Center
03:04PM 32.0514 -65.9353 228° Southwest 459 528 38,000  Level New York Center
03:05PM 31.9639 -66.0403 226° Southwest 459 528 38,000  Level New York Center
03:06PM 31.8864 -66.1375 227° Southwest 459 528 38,000  Level New York Center
03:07PM 31.7950 -66.2544 227° Southwest 454 522 38,000  Level New York Center
03:08PM 31.7094 -66.3611 227° Southwest 454 522 38,000  Level New York Center
03:09PM 31.6339 -66.4575 227° Southwest 454 522 38,000  Level New York Center
03:10PM 31.5403 -66.5739 227° Southwest 454 522 38,000  Level New York Center
03:11PM 31.4622 -66.6700 226° Southwest 454 522 38,000  Level New York Center
03:12PM 31.3683 -66.7861 227° Southwest 454 522 38,000  Level New York Center
03:13PM 31.2864 -66.8892 227° Southwest 442 509 38,000  Level New York Center
03:14PM 31.2058 -66.9775 223° Southwest 442 509 38,000  Level New York Center
03:15PM 31.1242 -67.0922 230° Southwest 437 503 38,000  Level New York Center
03:16PM 31.0311 -67.1831 220° Southwest 427 491 38,000  Level New York Center
03:17PM 30.9653 -67.2750 230° Southwest 427 491 38,000  Level New York Center
03:18PM 30.8744 -67.3800 225° Southwest 421 484 38,000  Level New York Center
03:20PM 30.7623 -67.5058 229° Southwest  Level FlightAware Approximate
03:21PM 30.6833 -67.6000 239° Southwest 404 465 38,000  Level New York Oceanic (ODAPS)
03:25PM 30.4500 -68.0833 239° Southwest 418 481 38,000  Level New York Oceanic (ODAPS)
03:27PM 30.3280 -68.2809 239° Southwest 404 465 38,000  Level FlightAware Transoceanic
03:28PM 30.2684 -68.3939 239° Southwest 404 465 38,000  Level FlightAware Transoceanic
03:29PM 30.2087 -68.5068 239° Southwest 404 465 38,000  Level FlightAware Transoceanic
03:30PM 30.1490 -68.6195 238° Southwest 404 465 38,000  Level FlightAware Transoceanic
03:31PM 30.0854 -68.7698 238° Southwest 418 481 38,000  Level FlightAware Transoceanic
03:32PM 30.0243 -68.8838 238° Southwest 418 481 38,000  Level FlightAware Transoceanic
03:33PM 29.9631 -68.9976 238° Southwest 418 481 38,000  Level FlightAware Transoceanic
03:34PM 29.9018 -69.1112 238° Southwest 418 481 38,000  Level FlightAware Transoceanic
03:35PM 29.8404 -69.2247 238° Southwest 418 481 38,000  Level FlightAware Transoceanic
03:36PM 29.7789 -69.3381 238° Southwest 418 481 38,000  Level FlightAware Transoceanic
03:37PM 29.7173 -69.4513 238° Southwest 418 481 38,000  Level FlightAware Transoceanic
03:38PM 29.6556 -69.5644 238° Southwest 418 481 38,000  Level FlightAware Transoceanic
03:39PM 29.5938 -69.6773 238° Southwest 418 481 38,000  Level FlightAware Transoceanic
03:39PM 29.6167 -69.6667 238° Southwest 415 478 38,000  Level New York Oceanic (ODAPS)
03:40PM 29.5319 -69.7901 238° Southwest 418 481 38,000  Level FlightAware Transoceanic
03:41PM 29.4699 -69.9028 238° Southwest 418 481 38,000  Level FlightAware Transoceanic
03:42PM 29.4079 -70.0153 238° Southwest 418 481 38,000  Level FlightAware Transoceanic
03:43PM 29.3457 -70.1277 238° Southwest 418 481 38,000  Level FlightAware Transoceanic
03:44PM 29.2834 -70.2400 238° Southwest 418 481 38,000  Level FlightAware Transoceanic
03:45PM 29.2407 -70.3431 237° Southwest 415 478 38,000  Level FlightAware Transoceanic
03:46PM 29.1777 -70.4554 237° Southwest 415 478 38,000  Level FlightAware Transoceanic
03:47PM 29.1146 -70.5675 237° Southwest 415 478 38,000  Level FlightAware Transoceanic
03:48PM 29.0515 -70.6795 237° Southwest 415 478 38,000  Level FlightAware Transoceanic
03:49PM 28.9882 -70.7914 237° Southwest 415 478 38,000  Level FlightAware Transoceanic
03:50PM 28.9248 -70.9031 237° Southwest 415 478 38,000  Level FlightAware Transoceanic
03:51PM 28.8614 -71.0146 237° Southwest 415 478 38,000  Level FlightAware Transoceanic
03:51PM 28.8833 -71.0000 237° Southwest 411 473 38,000  Level New York Oceanic (ODAPS)
03:52PM 28.7978 -71.1261 237° Southwest 415 478 38,000  Level FlightAware Transoceanic
03:53PM 28.7342 -71.2374 237° Southwest 415 478 38,000  Level FlightAware Transoceanic
03:53PM 28.7667 -71.2000 237° Southwest 407 468 38,000  Level New York Oceanic (ODAPS)
03:54PM 28.6705 -71.3485 237° Southwest 415 478 38,000  Level FlightAware Transoceanic
03:55PM 28.6066 -71.4596 237° Southwest 415 478 38,000  Level FlightAware Transoceanic
03:56PM 28.5427 -71.5705 237° Southwest 415 478 38,000  Level FlightAware Transoceanic
03:57PM 28.5089 -71.6481 236° Southwest 411 473 38,000  Level FlightAware Transoceanic
03:58PM 28.4462 -71.7557 236° Southwest 411 473 38,000  Level FlightAware Transoceanic
03:59PM 28.3897 -71.8501 236° Southwest 407 468 38,000  Level FlightAware Transoceanic
03:59PM 28.3167 -71.9167 237° Southwest 422 486 38,000  Level New York Oceanic (ODAPS)
04:00PM 28.3265 -71.9580 236° Southwest 407 468 38,000  Level FlightAware Transoceanic
04:01PM 28.2633 -72.0658 236° Southwest 407 468 38,000  Level FlightAware Transoceanic
04:02PM 28.2000 -72.1734 236° Southwest 407 468 38,000  Level FlightAware Transoceanic
04:03PM 28.1366 -72.2810 236° Southwest 407 468 38,000  Level FlightAware Transoceanic
04:04PM 28.0731 -72.3884 236° Southwest 407 468 38,000  Level FlightAware Transoceanic
04:05PM 28.0096 -72.4956 236° Southwest 407 468 38,000  Level FlightAware Transoceanic
04:06PM 27.9209 -72.6039 237° Southwest 422 486 38,000  Level FlightAware Transoceanic
04:06PM 27.8833 -72.6833 236° Southwest 424 488 38,000  Level New York Oceanic (ODAPS)
04:07PM 27.8545 -72.7179 237° Southwest 422 486 38,000  Level FlightAware Transoceanic
04:08PM 27.7882 -72.8318 237° Southwest 422 486 38,000  Level FlightAware Transoceanic
04:09PM 27.7217 -72.9456 237° Southwest 422 486 38,000  Level FlightAware Transoceanic
04:10PM 27.6551 -73.0592 236° Southwest 422 486 38,000  Level FlightAware Transoceanic
04:11PM 27.5884 -73.1727 236° Southwest 422 486 38,000  Level FlightAware Transoceanic
04:12PM 27.5216 -73.2860 236° Southwest 422 486 38,000  Level FlightAware Transoceanic
04:13PM 27.4713 -73.3797 236° Southwest 424 488 38,000  Level FlightAware Transoceanic
04:14PM 27.4023 -73.4952 236° Southwest 424 488 38,000  Level FlightAware Transoceanic
04:15PM 27.3332 -73.6106 236° Southwest 424 488 38,000  Level FlightAware Transoceanic
04:16PM 27.2640 -73.7259 236° Southwest 424 488 38,000  Level FlightAware Transoceanic
04:17PM 27.1947 -73.8410 236° Southwest 424 488 38,000  Level FlightAware Transoceanic
04:18PM 27.1254 -73.9559 236° Southwest 424 488 38,000  Level FlightAware Transoceanic
04:19PM 27.0559 -74.0708 236° Southwest 424 488 38,000  Level FlightAware Transoceanic
04:19PM 27.0411 -74.0503 237° Southwest 466 536 38,000  Level Miami Center
04:20PM 26.9863 -74.1855 236° Southwest 424 488 38,000  Level FlightAware Transoceanic
04:20PM 26.9764 -74.1639 237° Southwest 455 524 38,000  Level Miami Center
04:21PM 26.9167 -74.3000 237° Southwest 424 488 38,000  Level FlightAware Transoceanic
04:21PM 26.9117 -74.2772 237° Southwest 444 511 38,000  Level Miami Center
04:22PM 26.8549 -74.4051 237° Southwest 424 488 38,000  Level FlightAware Transoceanic
04:22PM 26.8531 -74.3903 240° Southwest 438 504 38,000  Level Miami Center
04:23PM 26.7931 -74.5101 237° Southwest 424 488 38,000  Level FlightAware Transoceanic
04:23PM 26.7858 -74.5011 236° Southwest 433 498 38,000  Level Miami Center
04:24PM 26.7312 -74.6150 237° Southwest 424 488 38,000  Level FlightAware Transoceanic
04:24PM 26.7314 -74.6161 242° Southwest 433 498 38,000  Level Miami Center
04:25PM 26.6619 -74.7244 234° Southwest 433 498 38,000  Level Miami Center
04:26PM 26.5989 -74.8347 237° Southwest 433 498 38,000  Level Miami Center
04:27PM 26.5356 -74.9450 237° Southwest 427 491 38,000  Level Miami Center
04:28PM 26.4722 -75.0528 237° Southwest 427 491 38,000  Level Miami Center
04:29PM 26.4233 -75.1742 246° West 427 491 38,000  Level Miami Center
04:30PM 26.3578 -75.2794 235° Southwest 427 491 38,000  Level Miami Center
04:32PM 26.2431 -75.5056 241° Southwest 427 491 38,000  Level Miami Center
04:33PM 26.1772 -75.6106 235° Southwest 427 491 38,000  Level Miami Center
04:34PM 26.1258 -75.7244 243° Southwest 422 486 38,000  Level Miami Center
04:35PM 26.0597 -75.8317 236° Southwest 422 486 38,000  Level Miami Center
04:36PM 26.0061 -75.9453 242° Southwest 422 486 38,000  Level Miami Center
04:37PM 25.9483 -76.0614 241° Southwest 422 486 38,000  Level Miami Center
04:38PM 25.8864 -76.1681 237° Southwest 422 486 38,000  Level Miami Center
04:43PM 25.5760 -76.7500 237° Southwest 420 483 38,000  Level FlightAware
04:44PM 25.5470 -76.8040 239° Southwest 417 480 38,000  Level FlightAware
04:45PM 25.5030 -76.8850 239° Southwest 417 480 38,000  Level FlightAware
04:45PM 25.4720 -76.9420 239° Southwest 417 480 38,000  Level FlightAware
04:46PM 25.4330 -77.0140 239° Southwest 418 481 38,000  Level FlightAware
04:46PM 25.3977 -77.0785 239° Southwest 417 480 38,000  Level FlightAware ADS-B (KMIA)
04:47PM 25.3710 -77.1275 239° Southwest 417 480 38,000  Level FlightAware ADS-B (KMIA)
04:47PM 25.3189 -77.2232 239° Southwest 416 479 38,000  Level FlightAware ADS-B (KMIA)
04:48PM 25.2771 -77.2998 239° Southwest 417 480 38,000  Level FlightAware ADS-B (KMIA)
04:48PM 25.2446 -77.3594 239° Southwest 418 481 38,000  Level FlightAware ADS-B (KMIA)
04:49PM 25.2105 -77.4216 239° Southwest 418 481 38,000  Level FlightAware ADS-B (KMIA)
04:50PM 25.1940 -77.4510 238° Southwest 418 481 38,000  Level FlightAware
04:50PM 25.1690 -77.4980 240° Southwest 418 481 38,000  Level FlightAware
04:51PM 25.1043 -77.6147 239° Southwest 420 483 38,000  Level FlightAware ADS-B (KMIA)
04:51PM 25.0776 -77.6632 239° Southwest 419 482 38,000  Level FlightAware ADS-B (KMIA)
04:52PM 25.0461 -77.7204 239° Southwest 419 482 38,000  Level FlightAware ADS-B (KMIA)
04:52PM 25.0166 -77.7739 239° Southwest 418 481 38,000  Level FlightAware ADS-B (KMIA)
04:53PM 25.0010 -77.8030 239° Southwest 417 480 38,000  Level FlightAware
04:53PM 24.9774 -77.8449 238° Southwest 417 480 38,000 -720 Level FlightAware ADS-B (KMIA)
04:53PM 24.9459 -77.9018 239° Southwest 418 481 37,600 -900 Descending FlightAware ADS-B (KMIA)
04:54PM 24.9168 -77.9545 239° Southwest 421 484 37,100 -540 Descending FlightAware ADS-B (KMIA)
04:55PM 24.8950 -77.9940 239° Southwest 416 479 37,000 -120 Descending FlightAware
04:56PM 24.8380 -78.0960 238° Southwest 419 482 37,000  Level FlightAware
04:56PM 24.7860 -78.1900 239° Southwest 419 482 37,000  Level FlightAware
04:57PM 24.7600 -78.2370 239° Southwest 417 480 37,000  Level FlightAware
04:58PM 24.7090 -78.3280 238° Southwest 416 479 37,000  Level FlightAware
04:58PM 24.6730 -78.3910 238° Southwest 417 480 37,000  Level FlightAware
04:59PM 24.6120 -78.5010 239° Southwest 418 481 37,000  Level FlightAware
05:00PM 24.5680 -78.5800 239° Southwest 414 476 37,000  Level FlightAware
05:01PM 24.5080 -78.6870 238° Southwest 416 479 37,000  Level FlightAware
05:02PM 24.4520 -78.7850 238° Southwest 413 475 37,000  Level FlightAware
05:03PM 24.3980 -78.8810 238° Southwest 416 479 37,000  Level FlightAware
05:04PM 24.3500 -78.9660 238° Southwest 418 481 37,000  Level FlightAware
05:04PM 24.3010 -79.0520 238° Southwest 419 482 37,000  Level FlightAware
05:05PM 24.2740 -79.1000 238° Southwest 421 484 37,000  Level FlightAware
05:06PM 24.2090 -79.2150 238° Southwest 422 486 37,000  Level FlightAware
05:06PM 24.1780 -79.2680 237° Southwest 424 488 37,000  Level FlightAware
05:07PM 24.1130 -79.3820 238° Southwest 433 498 37,000  Level FlightAware
05:08PM 24.0550 -79.4850 238° Southwest 433 498 37,000  Level FlightAware
05:09PM 24.0150 -79.5860 247° West 429 494 37,000  Level FlightAware
05:10PM 23.9870 -79.6940 254° West 428 493 37,000  Level FlightAware
05:11PM 23.9690 -79.7600 253° West 429 494 37,000  Level FlightAware
05:12PM 23.9350 -79.8890 254° West 431 496 37,000  Level FlightAware
05:12PM 23.9050 -80.0060 254° West 430 495 37,000  Level FlightAware
05:13PM 23.8870 -80.0710 253° West 431 496 37,000 -540 Level FlightAware
05:14PM 23.8600 -80.1730 254° West 434 499 36,300 -1,020 Descending FlightAware
05:15PM 23.8350 -80.2660 254° West 437 503 35,500 -840 Descending FlightAware
05:15PM 23.8070 -80.3710 254° West 431 496 35,000 -360 Descending FlightAware
05:16PM 23.7850 -80.4700 256° West 434 499 35,000  Level FlightAware
05:17PM 23.8100 -80.5800 284° West 430 495 35,000  Level FlightAware
05:18PM 23.8400 -80.6740 289° West 431 496 35,000  Level FlightAware
05:18PM 23.8520 -80.7260 284° West 428 493 35,000  Level FlightAware
05:19PM 23.8550 -80.7610 275° West 426 490 35,000  Level FlightAware
05:19PM 23.8330 -80.8440 254° West 429 494 35,000 -600 Level FlightAware
05:20PM 23.7900 -80.9330 242° Southwest 435 501 34,200 -1,440 Descending FlightAware
05:20PM 23.7650 -80.9900 244° Southwest 431 496 33,200 -2,100 Descending FlightAware
05:21PM 23.7230 -81.0870 245° Southwest 425 489 31,500 -2,820 Descending FlightAware
05:22PM 23.6880 -81.1850 249° West 445 512 28,600 -2,940 Descending FlightAware
05:23PM 23.6680 -81.2460 250° West 436 502 27,700 -1,200 Descending FlightAware
05:23PM 23.6440 -81.3150 249° West 433 498 27,300 -300 Descending FlightAware
05:24PM 23.6140 -81.3990 249° West 433 498 27,300  Level FlightAware
05:25PM 23.5860 -81.4780 249° West 433 498 27,300  Level FlightAware
05:26PM 23.5570 -81.5620 249° West 433 498 27,300  Level FlightAware
05:26PM 23.5280 -81.6450 249° West 433 498 27,300  Level FlightAware
05:29PM 23.3669 -81.8747 233° Southwest  Level Estimated
05:30PM 23.2924 -81.9805 233° Southwest  Level Estimated
05:31PM 23.2179 -82.0862 233° Southwest  Level Estimated
05:32PM 23.1433 -82.1917 232° Southwest  Level Estimated
05:33PM 23.0686 -82.2972 232° Southwest  Level Estimated
05:34PM 22.9938 -82.4025 232° Southwest  Level Estimated
05:35PM 22.9891 -82.4091 232° Southwest  Level Estimated
05:36PM 22.9891 -82.4091 51° Northeast  Level Estimated
05:37PM 22.9891 -82.4091 51° Northeast  Level Estimated
05:38PM 22.9891 -82.4091 51° Northeast  Level Estimated
05:39PM 22.9891 -82.4091 51° Northeast  Level Estimated
05:40PM 22.9891 -82.4091 51° Northeast  Level Estimated
05:41PM 22.9891 -82.4091 51° Northeast  Level Estimated
05:42PM 22.9891 -82.4091 51° Northeast  Level Estimated
05:43PM 22.9891 -82.4091 51° Northeast  Level Estimated
05:44PM 22.9891 -82.4091 51° Northeast  Level Estimated
05:45PM 22.9891 -82.4091 51° Northeast  Level Estimated
05:47PM 22.9891 -82.4091 51° Northeast  Level Estimated
05:49PM 22.9891 -82.4091 51° Northeast  Level Estimated
05:50PM 22.9891 -82.4091 51° Northeast  Level Estimated
05:51PM 22.9891 -82.4091 51° Northeast  Level Estimated
05:52PM 22.9891 -82.4091 51° Northeast  Level Estimated
05:53PM 22.9891 -82.4091 51° Northeast  Level Estimated
05:54PM 22.9891 -82.4091 51° Northeast  Level Estimated
05:55PM 22.9891 -82.4091 51° Northeast  Level Estimated
05:56PM 22.9891 -82.4091 51° Northeast  Level Estimated